Titus, Alabama
Current Conditions -  °F | °C
As of 10:15 AM on Friday 21 Nov 2014 (Local Time) from K1A9 Reporting Station
Clear Clear  
Wind Chill: 60°   Ceiling: Unl
Heat Index: 60°   Visibility: 10mi
Dew Point: 46°   Wind: 0mph
Humidity: 61%   Direction: NA
Pressure: 30.38"   Gusts: NA
Location:  32.71°N, 86.32°W
Report Text: K1A9 211615Z AUTO 00000KT 10SM CLR 16/08 A3038 RMK AO2 T01550080
Loading
Personal Weather Stations






























Interactive Weather Map New forecast layout! Learn more

10-Day Weather Forecast

Advertisements
Track Severe Weather on mobile